createdAt,value
2018-09-21T00:00:15.542Z,18.68
2018-09-21T00:02:44.980Z,18.70
2018-09-21T00:05:14.453Z,18.72
2018-09-21T00:07:43.949Z,18.73
2018-09-21T00:10:13.435Z,18.74
2018-09-21T00:12:42.874Z,18.73
2018-09-21T00:15:12.290Z,18.75
2018-09-21T00:17:41.754Z,18.76
2018-09-21T00:20:11.215Z,18.77
2018-09-21T00:22:40.681Z,18.78
2018-09-21T00:25:10.239Z,18.77
2018-09-21T00:27:39.689Z,18.78
2018-09-21T00:30:09.193Z,18.78
2018-09-21T00:32:38.709Z,18.74
2018-09-21T00:35:08.198Z,18.71
2018-09-21T00:37:37.638Z,18.68
2018-09-21T00:40:07.182Z,18.62
2018-09-21T00:42:36.625Z,18.59
2018-09-21T00:45:06.329Z,18.56
2018-09-21T00:47:35.844Z,18.55
2018-09-21T00:50:05.393Z,18.50
2018-09-21T00:52:34.897Z,18.47
2018-09-21T00:55:04.512Z,18.45
2018-09-21T00:57:33.957Z,18.42
2018-09-21T01:00:03.565Z,18.40
2018-09-21T01:02:33.235Z,18.40
2018-09-21T01:05:02.754Z,18.41
2018-09-21T01:07:32.213Z,18.40
2018-09-21T01:10:01.722Z,18.41
2018-09-21T01:12:31.165Z,18.41
2018-09-21T01:15:00.613Z,18.39
2018-09-21T01:17:30.110Z,18.36
2018-09-21T01:19:59.760Z,18.32
2018-09-21T01:22:29.232Z,18.30
2018-09-21T01:24:58.755Z,18.31
2018-09-21T01:27:28.243Z,18.31
2018-09-21T01:29:57.724Z,18.35
2018-09-21T01:32:27.272Z,18.37
2018-09-21T01:34:56.740Z,18.40
2018-09-21T01:37:26.220Z,18.43
2018-09-21T01:39:55.937Z,18.46
2018-09-21T01:42:25.417Z,18.47
2018-09-21T01:44:55.049Z,18.49
2018-09-21T01:47:24.733Z,18.50
2018-09-21T01:49:54.247Z,18.49
2018-09-21T01:52:23.830Z,18.48
2018-09-21T01:54:53.498Z,18.47
2018-09-21T01:57:23.089Z,18.48
2018-09-21T01:59:52.652Z,18.48
2018-09-21T02:02:22.286Z,18.49
2018-09-21T02:04:51.932Z,18.50
2018-09-21T02:07:21.500Z,18.50
2018-09-21T02:09:51.706Z,18.46
2018-09-21T02:12:21.371Z,18.46
2018-09-21T02:14:50.977Z,18.49
2018-09-21T02:17:20.877Z,18.47
2018-09-21T02:19:50.502Z,18.47
2018-09-21T02:22:20.105Z,18.48
2018-09-21T02:24:49.807Z,18.46
2018-09-21T02:27:19.385Z,18.44
2018-09-21T02:29:48.998Z,18.42
2018-09-21T02:32:18.586Z,18.38
2018-09-21T02:34:48.152Z,18.33
2018-09-21T02:37:17.754Z,18.30
2018-09-21T02:39:47.569Z,18.31
2018-09-21T02:42:17.209Z,18.31
2018-09-21T02:44:46.887Z,18.29
2018-09-21T02:47:16.517Z,18.27
2018-09-21T02:49:46.108Z,18.24
2018-09-21T02:52:15.728Z,18.22
2018-09-21T02:54:45.369Z,18.22
2018-09-21T02:57:14.960Z,18.22
2018-09-21T02:59:44.611Z,18.20
2018-09-21T03:02:14.197Z,18.19
2018-09-21T03:04:48.948Z,18.16
2018-09-21T03:07:18.573Z,18.16
2018-09-21T03:09:48.113Z,18.15
2018-09-21T03:12:17.699Z,18.16
2018-09-21T03:14:47.310Z,18.15
2018-09-21T03:17:16.890Z,18.14
2018-09-21T03:19:46.464Z,18.11
2018-09-21T03:22:16.219Z,18.13
2018-09-21T03:24:45.797Z,18.16
2018-09-21T03:27:15.403Z,18.18
2018-09-21T03:29:44.983Z,18.18
2018-09-21T03:32:14.548Z,18.19
2018-09-21T03:34:44.155Z,18.21
2018-09-21T03:37:13.815Z,18.23
2018-09-21T03:39:43.374Z,18.23
2018-09-21T03:42:12.969Z,18.22
2018-09-21T03:44:42.772Z,18.24
2018-09-21T03:47:12.328Z,18.23
2018-09-21T03:49:42.009Z,18.23
2018-09-21T03:52:11.627Z,18.24
2018-09-21T03:54:41.180Z,18.25
2018-09-21T03:57:10.822Z,18.25
2018-09-21T03:59:40.398Z,18.22
2018-09-21T04:02:10.021Z,18.21
2018-09-21T04:04:42.904Z,18.22
2018-09-21T04:07:12.732Z,18.23
2018-09-21T04:09:42.297Z,18.25
2018-09-21T04:12:11.854Z,18.30
2018-09-21T04:14:41.401Z,18.32
2018-09-21T04:17:10.964Z,18.35
2018-09-21T04:19:40.636Z,18.36
2018-09-21T04:22:10.177Z,18.37
2018-09-21T04:24:39.748Z,18.37
2018-09-21T04:27:09.337Z,18.39
2018-09-21T04:29:38.945Z,18.42
2018-09-21T04:32:08.506Z,18.45
2018-09-21T04:34:38.074Z,18.46
2018-09-21T04:37:07.707Z,18.47
2018-09-21T04:39:37.409Z,18.52
2018-09-21T04:42:07.005Z,18.54
2018-09-21T04:44:36.675Z,18.55
2018-09-21T04:47:06.299Z,18.56
2018-09-21T04:49:36.011Z,18.59
2018-09-21T04:52:05.741Z,18.60
2018-09-21T04:54:35.309Z,18.61
2018-09-21T04:57:04.916Z,18.63
2018-09-21T04:59:34.560Z,18.64
2018-09-21T05:02:04.152Z,18.64
2018-09-21T05:04:33.697Z,18.68
2018-09-21T05:07:03.278Z,18.73
2018-09-21T05:09:32.837Z,18.80
2018-09-21T05:12:02.506Z,18.88
2018-09-21T05:14:32.198Z,18.92
2018-09-21T05:17:01.764Z,18.99
2018-09-21T05:19:31.616Z,19.12
2018-09-21T05:22:01.237Z,19.36
2018-09-21T05:24:30.773Z,19.65
2018-09-21T05:27:00.359Z,20.05
2018-09-21T05:29:29.945Z,20.56
2018-09-21T05:31:59.527Z,20.92
2018-09-21T05:34:29.305Z,21.12
2018-09-21T05:37:05.697Z,21.08
2018-09-21T05:39:35.385Z,20.96
2018-09-21T05:42:05.070Z,20.87
2018-09-21T05:44:34.651Z,20.82
2018-09-21T05:47:04.511Z,20.80
2018-09-21T05:49:34.120Z,20.81
2018-09-21T05:52:03.728Z,20.86
2018-09-21T05:54:33.338Z,20.94
2018-09-21T05:57:02.896Z,21.13
2018-09-21T05:59:32.493Z,21.77
2018-09-21T06:02:02.365Z,22.66
2018-09-21T06:04:31.916Z,23.54
2018-09-21T06:07:01.741Z,24.37
2018-09-21T06:09:31.507Z,25.19
2018-09-21T06:12:01.254Z,25.80
2018-09-21T06:14:30.901Z,26.31
2018-09-21T06:17:00.532Z,26.79
2018-09-21T06:19:30.208Z,27.27
2018-09-21T06:21:59.789Z,27.65
2018-09-21T06:24:29.585Z,27.99
2018-09-21T06:26:59.177Z,28.21
2018-09-21T06:29:28.763Z,28.25
2018-09-21T06:31:58.376Z,28.46
2018-09-21T06:34:28.016Z,28.72
2018-09-21T06:36:57.625Z,29.11
2018-09-21T06:39:27.372Z,29.51
2018-09-21T06:41:56.984Z,29.97
2018-09-21T06:44:26.627Z,30.37
2018-09-21T06:46:56.371Z,30.71
2018-09-21T06:49:26.065Z,31.07
2018-09-21T06:51:55.748Z,31.14
2018-09-21T06:54:25.424Z,31.17
2018-09-21T06:56:55.045Z,31.17
2018-09-21T06:59:24.669Z,31.17
2018-09-21T07:01:54.534Z,31.29
2018-09-21T07:04:24.192Z,31.48
2018-09-21T07:06:53.803Z,31.77
2018-09-21T07:09:23.409Z,32.09
2018-09-21T07:11:53.077Z,32.15
2018-09-21T07:14:22.663Z,32.15
2018-09-21T07:16:52.332Z,32.01
2018-09-21T07:19:22.029Z,31.80
2018-09-21T07:21:51.641Z,31.47
2018-09-21T07:24:21.280Z,30.99
2018-09-21T07:26:50.913Z,30.25
2018-09-21T07:29:20.560Z,29.68
2018-09-21T07:31:50.151Z,29.43
2018-09-21T07:34:19.752Z,29.57
2018-09-21T07:36:49.993Z,29.85
2018-09-21T07:39:19.548Z,29.99
2018-09-21T07:41:49.117Z,29.90
2018-09-21T07:44:18.734Z,29.69
2018-09-21T07:46:48.542Z,29.27
2018-09-21T07:49:18.155Z,29.20
2018-09-21T07:51:47.748Z,29.61
2018-09-21T07:54:17.372Z,30.33
2018-09-21T07:56:47.008Z,31.27
2018-09-21T07:59:16.596Z,31.97
2018-09-21T08:01:46.229Z,32.97
2018-09-21T08:04:15.782Z,33.96
2018-09-21T08:06:45.429Z,34.64
2018-09-21T08:09:15.247Z,35.13
2018-09-21T08:11:44.890Z,35.47
2018-09-21T08:14:14.545Z,35.63
2018-09-21T08:16:44.245Z,35.26
2018-09-21T08:19:13.826Z,34.81
2018-09-21T08:21:43.460Z,34.97
2018-09-21T08:24:13.144Z,35.32
2018-09-21T08:26:42.902Z,35.69
2018-09-21T08:29:12.489Z,36.03
2018-09-21T08:31:42.214Z,36.26
2018-09-21T08:34:11.897Z,36.67
2018-09-21T08:36:41.498Z,37.19
2018-09-21T08:39:12.236Z,37.29
2018-09-21T08:41:42.229Z,37.38
2018-09-21T08:44:11.842Z,37.38
2018-09-21T08:46:41.511Z,37.31
2018-09-21T08:49:11.200Z,37.43
2018-09-21T08:51:40.885Z,37.78
2018-09-21T08:54:10.617Z,38.07
2018-09-21T08:56:40.217Z,38.33
2018-09-21T08:59:09.899Z,38.20
2018-09-21T09:01:39.589Z,37.82
2018-09-21T09:04:09.786Z,37.57
2018-09-21T09:06:39.415Z,37.04
2018-09-21T09:09:10.876Z,37.10
2018-09-21T09:11:40.753Z,37.26
2018-09-21T09:14:10.727Z,37.26
2018-09-21T09:16:40.771Z,37.48
2018-09-21T09:19:10.431Z,37.25
2018-09-21T09:21:40.249Z,37.35
2018-09-21T09:24:09.897Z,37.66
2018-09-21T09:26:39.512Z,37.79
2018-09-21T09:29:09.522Z,37.92
2018-09-21T09:31:39.585Z,37.89
2018-09-21T09:34:09.568Z,37.99
2018-09-21T09:36:39.315Z,38.06
2018-09-21T09:39:12.421Z,38.26
2018-09-21T09:41:42.080Z,38.12
2018-09-21T09:44:11.983Z,37.70
2018-09-21T09:46:41.721Z,37.53
2018-09-21T09:49:11.341Z,37.57
2018-09-21T09:51:41.058Z,37.71
2018-09-21T09:54:10.710Z,37.32
2018-09-21T09:56:40.449Z,36.67
2018-09-21T09:59:10.043Z,35.89
2018-09-21T10:01:39.672Z,35.29
2018-09-21T10:04:09.295Z,35.19
2018-09-21T10:06:38.889Z,35.39
2018-09-21T10:09:10.998Z,35.22
2018-09-21T10:11:41.197Z,34.93
2018-09-21T10:14:11.033Z,34.41
2018-09-21T10:16:40.855Z,34.29
2018-09-21T10:19:10.464Z,34.56
2018-09-21T10:21:40.223Z,34.68
2018-09-21T10:24:09.993Z,34.61
2018-09-21T10:26:39.586Z,34.52
2018-09-21T10:29:09.355Z,34.31
2018-09-21T10:31:39.003Z,34.28
2018-09-21T10:34:08.629Z,34.17
2018-09-21T10:36:38.256Z,33.98
2018-09-21T10:39:08.543Z,33.77
2018-09-21T10:41:38.354Z,33.47
2018-09-21T10:44:08.329Z,33.28
2018-09-21T10:46:38.181Z,33.02
2018-09-21T10:49:07.834Z,32.91
2018-09-21T10:51:37.521Z,33.12
2018-09-21T10:54:07.267Z,33.29
2018-09-21T10:56:36.836Z,33.56
2018-09-21T10:59:06.502Z,33.78
2018-09-21T11:01:36.125Z,33.68
2018-09-21T11:04:05.951Z,33.44
2018-09-21T11:06:35.535Z,32.97
2018-09-21T11:09:08.625Z,32.58
2018-09-21T11:11:38.333Z,32.44
2018-09-21T11:14:07.956Z,32.32
2018-09-21T11:16:37.702Z,32.10
2018-09-21T11:19:07.337Z,31.87
2018-09-21T11:21:37.029Z,31.86
2018-09-21T11:24:06.692Z,31.85
2018-09-21T11:26:36.261Z,31.85
2018-09-21T11:29:06.086Z,31.82
2018-09-21T11:31:35.665Z,31.70
2018-09-21T11:34:05.231Z,31.53
2018-09-21T11:36:34.829Z,31.46
2018-09-21T11:39:09.162Z,31.44
2018-09-21T11:41:38.789Z,31.49
2018-09-21T11:44:08.653Z,31.62
2018-09-21T11:46:38.318Z,31.77
2018-09-21T11:49:08.013Z,31.85
2018-09-21T11:51:37.574Z,31.95
2018-09-21T11:54:07.289Z,31.99
2018-09-21T11:56:36.817Z,32.05
2018-09-21T11:59:06.417Z,32.13
2018-09-21T12:01:36.066Z,32.12
2018-09-21T12:04:05.634Z,31.97
2018-09-21T12:06:35.153Z,31.89
2018-09-21T12:09:05.356Z,31.85
2018-09-21T12:11:35.258Z,31.73
2018-09-21T12:14:05.027Z,31.47
2018-09-21T12:16:34.651Z,31.20
2018-09-21T12:19:04.277Z,30.97
2018-09-21T12:21:33.972Z,30.86
2018-09-21T12:24:03.580Z,30.84
2018-09-21T12:26:33.144Z,30.84
2018-09-21T12:29:02.731Z,30.85
2018-09-21T12:31:32.315Z,30.95
2018-09-21T12:34:01.873Z,31.04
2018-09-21T12:36:31.692Z,31.15
2018-09-21T12:39:01.230Z,31.27
2018-09-21T12:41:30.834Z,31.30
2018-09-21T12:44:00.400Z,31.25
2018-09-21T12:46:30.416Z,31.15
2018-09-21T12:49:03.653Z,30.99
2018-09-21T12:51:34.516Z,30.88
2018-09-21T12:54:04.155Z,30.82
2018-09-21T12:56:33.752Z,30.82
2018-09-21T12:59:03.417Z,30.80
2018-09-21T13:01:32.969Z,30.76
2018-09-21T13:04:02.651Z,30.72
2018-09-21T13:06:32.297Z,30.64
2018-09-21T13:09:01.866Z,30.51
2018-09-21T13:11:31.484Z,30.36
2018-09-21T13:14:01.091Z,30.18
2018-09-21T13:16:30.750Z,30.01
2018-09-21T13:19:00.489Z,29.85
2018-09-21T13:21:30.110Z,29.68
2018-09-21T13:23:59.719Z,29.60
2018-09-21T13:26:29.326Z,29.55
2018-09-21T13:28:59.182Z,29.49
2018-09-21T13:31:28.765Z,29.36
2018-09-21T13:33:58.391Z,29.26
2018-09-21T13:36:28.238Z,29.16
2018-09-21T13:38:57.820Z,29.00
2018-09-21T13:41:27.473Z,28.87
2018-09-21T13:43:57.094Z,28.77
2018-09-21T13:46:26.653Z,28.69
2018-09-21T13:48:56.398Z,28.61
2018-09-21T13:51:25.988Z,28.52
2018-09-21T13:53:55.577Z,28.42
2018-09-21T13:56:25.278Z,28.30
2018-09-21T13:58:55.404Z,28.21
2018-09-21T14:01:24.966Z,28.15
2018-09-21T14:03:54.574Z,28.07
2018-09-21T14:06:24.149Z,28.02
2018-09-21T14:08:53.765Z,28.01
2018-09-21T14:11:23.350Z,27.99
2018-09-21T14:13:52.905Z,27.98
2018-09-21T14:16:22.462Z,27.91
2018-09-21T14:18:52.049Z,27.87
2018-09-21T14:21:21.649Z,27.80
2018-09-21T14:23:51.245Z,27.72
2018-09-21T14:26:20.871Z,27.66
2018-09-21T14:28:50.470Z,27.60
2018-09-21T14:31:20.012Z,27.54
2018-09-21T14:33:49.721Z,27.47
2018-09-21T14:36:19.482Z,27.42
2018-09-21T14:38:49.021Z,27.38
2018-09-21T14:41:18.723Z,27.35
2018-09-21T14:43:48.952Z,27.25
2018-09-21T14:46:18.513Z,26.51
2018-09-21T14:48:48.138Z,25.40
2018-09-21T14:51:17.728Z,24.21
2018-09-21T14:53:47.314Z,23.18
2018-09-21T14:56:17.024Z,22.30
2018-09-21T14:58:46.713Z,21.58
2018-09-21T15:01:16.300Z,20.99
2018-09-21T15:03:45.879Z,20.45
2018-09-21T15:06:15.476Z,20.00
2018-09-21T15:08:45.114Z,19.59
2018-09-21T15:11:15.165Z,19.22
2018-09-21T15:13:44.808Z,18.92
2018-09-21T15:16:14.480Z,18.72
2018-09-21T15:18:44.101Z,18.44
2018-09-21T15:21:13.749Z,18.26
2018-09-21T15:23:43.299Z,18.13
2018-09-21T15:26:12.900Z,17.97
2018-09-21T15:28:42.490Z,17.74
2018-09-21T15:31:12.057Z,17.58
2018-09-21T15:33:41.689Z,17.46
2018-09-21T15:36:11.315Z,17.38
2018-09-21T15:38:40.944Z,17.29
2018-09-21T15:41:10.583Z,17.23
2018-09-21T15:43:40.287Z,17.23
2018-09-21T15:46:09.812Z,17.19
2018-09-21T15:48:39.466Z,17.13
2018-09-21T15:51:09.546Z,17.11
2018-09-21T15:53:39.172Z,17.05
2018-09-21T15:56:08.857Z,17.01
2018-09-21T15:58:38.507Z,16.94
2018-09-21T16:01:08.127Z,16.79
2018-09-21T16:03:37.741Z,16.64
2018-09-21T16:06:07.505Z,16.51
2018-09-21T16:08:37.052Z,16.39
2018-09-21T16:11:06.644Z,16.27
2018-09-21T16:13:36.213Z,16.14
2018-09-21T16:16:05.781Z,16.03
2018-09-21T16:18:35.488Z,15.88
2018-09-21T16:21:05.447Z,15.72
2018-09-21T16:23:35.285Z,15.56
2018-09-21T16:26:04.841Z,15.42
2018-09-21T16:28:34.413Z,15.29
2018-09-21T16:31:04.145Z,15.18
2018-09-21T16:33:33.745Z,15.12
2018-09-21T16:36:03.408Z,15.07
2018-09-21T16:38:32.885Z,14.99
2018-09-21T16:41:02.555Z,14.95
2018-09-21T16:43:32.102Z,14.91
2018-09-21T16:46:01.879Z,14.87
2018-09-21T16:48:31.499Z,14.85
2018-09-21T16:51:01.566Z,14.84
2018-09-21T16:53:31.109Z,14.87
2018-09-21T16:56:00.705Z,14.89
2018-09-21T16:58:30.444Z,14.87
2018-09-21T17:00:59.986Z,14.90
2018-09-21T17:03:29.631Z,14.94
2018-09-21T17:05:59.353Z,14.94
2018-09-21T17:08:28.901Z,14.92
2018-09-21T17:10:58.476Z,14.90
2018-09-21T17:13:28.178Z,14.90
2018-09-21T17:15:57.709Z,14.91
2018-09-21T17:18:27.277Z,14.92
2018-09-21T17:20:56.906Z,14.94
2018-09-21T17:23:26.532Z,14.95
2018-09-21T17:25:56.109Z,14.93
2018-09-21T17:28:25.830Z,14.95
2018-09-21T17:30:55.420Z,14.95
2018-09-21T17:33:24.994Z,15.00
2018-09-21T17:35:54.553Z,15.01
2018-09-21T17:38:24.077Z,15.00
2018-09-21T17:40:53.714Z,15.00
2018-09-21T17:43:23.274Z,14.98
2018-09-21T17:45:52.802Z,14.94
2018-09-21T17:48:22.574Z,14.93
2018-09-21T17:50:52.124Z,14.93
2018-09-21T17:53:21.706Z,14.91
2018-09-21T17:55:51.331Z,14.91
2018-09-21T17:58:20.904Z,14.89
2018-09-21T18:00:50.612Z,14.85
2018-09-21T18:03:20.157Z,14.82
2018-09-21T18:05:49.716Z,14.74
2018-09-21T18:08:19.577Z,14.68
2018-09-21T18:10:49.120Z,14.65
2018-09-21T18:13:18.717Z,14.62
2018-09-21T18:15:48.501Z,14.60
2018-09-21T18:18:18.233Z,14.59
2018-09-21T18:20:47.809Z,14.59
2018-09-21T18:23:17.380Z,14.62
2018-09-21T18:25:47.078Z,14.64
2018-09-21T18:28:16.613Z,14.62
2018-09-21T18:30:46.161Z,14.65
2018-09-21T18:33:15.940Z,14.69
2018-09-21T18:35:45.476Z,14.71
2018-09-21T18:38:15.036Z,14.70
2018-09-21T18:40:44.745Z,14.69
2018-09-21T18:43:14.330Z,14.68
2018-09-21T18:45:44.316Z,14.67
2018-09-21T18:48:13.889Z,14.66
2018-09-21T18:50:43.584Z,14.62
2018-09-21T18:53:13.138Z,14.60
2018-09-21T18:55:42.890Z,14.59
2018-09-21T18:58:12.510Z,14.59
2018-09-21T19:00:42.123Z,14.58
2018-09-21T19:03:12.145Z,14.57
2018-09-21T19:05:41.732Z,14.56
2018-09-21T19:08:11.337Z,14.56
2018-09-21T19:10:40.900Z,14.57
2018-09-21T19:13:10.472Z,14.56
2018-09-21T19:15:40.031Z,14.53
2018-09-21T19:18:09.593Z,14.48
2018-09-21T19:20:39.185Z,14.45
2018-09-21T19:23:08.769Z,14.46
2018-09-21T19:25:38.412Z,14.46
2018-09-21T19:28:08.008Z,14.45
2018-09-21T19:30:37.540Z,14.42
2018-09-21T19:33:07.187Z,14.39
2018-09-21T19:35:36.846Z,14.35
2018-09-21T19:38:06.996Z,14.32
2018-09-21T19:40:36.603Z,14.30
2018-09-21T19:43:06.515Z,14.30
2018-09-21T19:45:36.098Z,14.28
2018-09-21T19:48:06.005Z,14.27
2018-09-21T19:50:35.616Z,14.27
2018-09-21T19:53:05.243Z,14.27
2018-09-21T19:55:34.806Z,14.28
2018-09-21T19:58:04.393Z,14.28
2018-09-21T20:00:34.061Z,14.28
2018-09-21T20:03:03.676Z,14.29
2018-09-21T20:05:33.306Z,14.31
2018-09-21T20:08:03.012Z,14.30
2018-09-21T20:10:32.588Z,14.28
2018-09-21T20:13:02.170Z,14.25
2018-09-21T20:15:31.752Z,14.22
2018-09-21T20:18:01.352Z,14.18
2018-09-21T20:20:30.920Z,14.12
2018-09-21T20:23:00.490Z,14.07
2018-09-21T20:25:30.133Z,14.01
2018-09-21T20:27:59.737Z,13.94
2018-09-21T20:30:34.335Z,13.86
2018-09-21T20:33:08.991Z,13.78
2018-09-21T20:35:38.644Z,13.71
2018-09-21T20:38:08.274Z,13.64
2018-09-21T20:40:37.822Z,13.57
2018-09-21T20:43:07.408Z,13.52
2018-09-21T20:45:36.980Z,13.49
2018-09-21T20:48:06.578Z,13.44
2018-09-21T20:50:36.216Z,13.41
2018-09-21T20:53:05.779Z,13.36
2018-09-21T20:55:35.428Z,13.30
2018-09-21T20:58:05.380Z,13.25
2018-09-21T21:00:34.992Z,13.20
2018-09-21T21:03:04.720Z,13.16
2018-09-21T21:05:34.405Z,13.13
2018-09-21T21:08:04.001Z,13.08
2018-09-21T21:10:33.595Z,12.99
2018-09-21T21:13:03.150Z,12.92
2018-09-21T21:15:32.733Z,12.86
2018-09-21T21:18:02.300Z,12.83
2018-09-21T21:20:31.845Z,12.77
2018-09-21T21:23:01.444Z,12.75
2018-09-21T21:25:31.053Z,12.72
2018-09-21T21:28:00.664Z,12.71
2018-09-21T21:30:30.340Z,12.68
2018-09-21T21:32:59.957Z,12.66
2018-09-21T21:35:29.556Z,12.65
2018-09-21T21:37:59.205Z,12.65
2018-09-21T21:40:28.829Z,12.68
2018-09-21T21:42:58.394Z,12.76
2018-09-21T21:45:27.999Z,12.86
2018-09-21T21:47:57.537Z,12.90
2018-09-21T21:50:27.076Z,12.87
2018-09-21T21:52:56.871Z,12.81
2018-09-21T21:55:26.577Z,12.74
2018-09-21T21:57:56.156Z,12.69
2018-09-21T22:00:29.816Z,12.64
2018-09-21T22:02:59.402Z,12.62
2018-09-21T22:05:28.962Z,12.55
2018-09-21T22:07:58.581Z,12.53
2018-09-21T22:10:28.288Z,12.51
2018-09-21T22:13:03.088Z,12.50
2018-09-21T22:15:32.691Z,12.47
2018-09-21T22:18:02.340Z,12.41
2018-09-21T22:20:32.035Z,12.31
2018-09-21T22:23:01.618Z,12.22
2018-09-21T22:25:31.172Z,12.15
2018-09-21T22:28:00.859Z,12.11
2018-09-21T22:30:30.470Z,12.07
2018-09-21T22:33:00.096Z,12.03
2018-09-21T22:35:30.105Z,11.98
2018-09-21T22:37:59.824Z,11.93
2018-09-21T22:40:29.582Z,11.88
2018-09-21T22:42:59.332Z,11.85
2018-09-21T22:45:28.953Z,11.81
2018-09-21T22:47:58.557Z,11.77
2018-09-21T22:50:28.198Z,11.73
2018-09-21T22:52:57.885Z,11.71
2018-09-21T22:55:27.572Z,11.65
2018-09-21T22:57:57.146Z,11.60
2018-09-21T23:00:26.849Z,11.54
2018-09-21T23:02:56.502Z,11.50
2018-09-21T23:05:26.216Z,11.46
2018-09-21T23:07:55.936Z,11.41
2018-09-21T23:10:25.527Z,11.38
2018-09-21T23:12:55.360Z,11.34
2018-09-21T23:15:24.978Z,11.30
2018-09-21T23:17:54.523Z,11.28
2018-09-21T23:20:24.131Z,11.28
2018-09-21T23:22:53.692Z,11.26
2018-09-21T23:25:23.255Z,11.30
2018-09-21T23:27:52.882Z,11.43
2018-09-21T23:30:22.564Z,11.57
2018-09-21T23:32:52.229Z,11.66
2018-09-21T23:35:22.136Z,11.70
2018-09-21T23:37:51.790Z,11.73
2018-09-21T23:40:21.354Z,11.71
2018-09-21T23:42:50.976Z,11.69
2018-09-21T23:45:20.535Z,11.68
2018-09-21T23:47:50.160Z,11.66
2018-09-21T23:50:20.136Z,11.63
2018-09-21T23:52:49.712Z,11.63
2018-09-21T23:55:19.277Z,11.58
2018-09-21T23:57:49.116Z,11.54
